Time;durP1;ratioP1;P1;durP2;ratioP2;P2;SDS_P1;SDS_P2;PMS_P1;PMS_P2;Temp;Humidity;BMP_temperature;BMP_pressure;BME280_temperature;BME280_humidity;BME280_pressure;Samples;Min_cycle;Max_cycle;Signal;HPM_P1;HPM_P2
2023/03/28 00:01:54;;;;;;;11.27;2.35;;;;;;;3.28;100.00;102598.34;5196408;28;20048;-69
2023/03/28 00:04:25;;;;;;;6.60;2.10;;;;;;;3.16;100.00;102596.94;5195227;28;20038;-69
2023/03/28 00:06:56;;;;;;;7.43;2.30;;;;;;;3.23;100.00;102605.41;5197511;28;20049;-69
2023/03/28 00:09:28;;;;;;;4.35;1.65;;;;;;;3.17;100.00;102609.00;5197187;28;20037;-69
2023/03/28 00:12:00;;;;;;;6.00;1.80;;;;;;;3.21;100.00;102614.09;5192240;28;20476;-69
2023/03/28 00:14:34;;;;;;;6.60;2.22;;;;;;;3.19;100.00;102601.19;5197068;28;20045;-69
2023/03/28 00:17:06;;;;;;;11.60;2.42;;;;;;;3.21;100.00;102603.72;5201002;28;20413;-68
2023/03/28 00:19:39;;;;;;;7.55;2.13;;;;;;;3.16;100.00;102602.13;5199667;28;20087;-69
2023/03/28 00:22:10;;;;;;;8.20;2.13;;;;;;;3.14;100.00;102597.84;5198869;28;20090;-69
2023/03/28 00:24:43;;;;;;;7.00;2.53;;;;;;;3.03;100.00;102592.09;5200108;28;20034;-69
2023/03/28 00:27:15;;;;;;;5.45;2.00;;;;;;;3.01;100.00;102602.50;5198195;28;20030;-69
2023/03/28 00:29:46;;;;;;;7.13;2.25;;;;;;;3.00;100.00;102605.16;5197378;28;20060;-69
2023/03/28 00:32:17;;;;;;;8.65;2.45;;;;;;;2.90;100.00;102595.00;5197259;28;20034;-69
2023/03/28 00:34:49;;;;;;;8.32;2.28;;;;;;;2.92;100.00;102592.38;5199626;28;20062;-69
2023/03/28 00:37:22;;;;;;;7.63;1.98;;;;;;;2.88;100.00;102595.94;5203790;28;20037;-69
2023/03/28 00:39:53;;;;;;;6.40;2.28;;;;;;;3.00;100.00;102594.78;5195441;28;20103;-69
2023/03/28 00:42:24;;;;;;;5.57;2.55;;;;;;;3.09;100.00;102585.03;5199400;28;20022;-69
2023/03/28 00:44:57;;;;;;;7.43;3.10;;;;;;;3.03;100.00;102602.44;5198803;28;20027;-69
2023/03/28 00:47:40;;;;;;;6.93;2.13;;;;;;;3.07;100.00;102606.66;5200230;28;20038;-69
2023/03/28 00:50:21;;;;;;;6.35;2.53;;;;;;;2.93;100.00;102588.91;5198529;28;20062;-69
2023/03/28 00:53:05;;;;;;;7.13;2.22;;;;;;;2.93;100.00;102599.25;5197087;28;20025;-69
2023/03/28 00:55:41;;;;;;;9.30;2.50;;;;;;;2.96;100.00;102601.78;5195466;28;20068;-69
2023/03/28 00:58:21;;;;;;;9.45;2.63;;;;;;;2.86;100.00;102602.88;5199190;28;20078;-69
2023/03/28 01:00:54;;;;;;;6.82;2.17;;;;;;;2.81;100.00;102604.75;5198733;28;20391;-69
2023/03/28 01:03:32;;;;;;;6.88;2.25;;;;;;;2.82;100.00;102580.56;5199696;28;20042;-69
2023/03/28 01:06:05;;;;;;;8.88;2.65;;;;;;;2.86;100.00;102603.72;5197418;28;20258;-69
2023/03/28 01:08:42;;;;;;;11.02;2.30;;;;;;;2.95;100.00;102607.81;5200951;28;20129;-68
2023/03/28 01:11:14;;;;;;;7.93;2.60;;;;;;;2.80;100.00;102600.44;5197767;28;20042;-69
2023/03/28 01:13:51;;;;;;;7.68;2.25;;;;;;;2.85;100.00;102588.25;5198818;28;20523;-69
2023/03/28 01:16:22;;;;;;;10.77;2.40;;;;;;;2.61;100.00;102607.78;5199373;28;20025;-69
2023/03/28 01:18:55;;;;;;;9.77;2.85;;;;;;;2.68;100.00;102601.56;5196191;28;20084;-69
2023/03/28 01:21:52;;;;;;;8.65;2.95;;;;;;;2.85;100.00;102588.25;5200032;28;20026;-68
2023/03/28 01:25:01;;;;;;;11.57;2.78;;;;;;;2.88;100.00;102589.03;5195616;28;20038;-69
2023/03/28 01:28:02;;;;;;;5.85;2.05;;;;;;;2.95;100.00;102589.69;5199633;28;20045;-69
2023/03/28 01:30:42;;;;;;;9.02;2.28;;;;;;;2.70;100.00;102593.78;5197105;28;20068;-69
2023/03/28 01:33:35;;;;;;;11.43;3.13;;;;;;;2.71;100.00;102578.22;5200720;28;20386;-69
2023/03/28 01:36:49;;;;;;;6.50;2.45;;;;;;;2.85;100.00;102586.50;5197422;28;20039;-69
2023/03/28 01:39:58;;;;;;;10.50;2.63;;;;;;;2.86;100.00;102584.75;5201167;28;20061;-69
2023/03/28 01:42:51;;;;;;;14.50;2.63;;;;;;;2.77;100.00;102590.19;5195299;28;20424;-69
2023/03/28 01:45:44;;;;;;;;;;;;;;;3.25;100.00;102580.31;5201987;28;20494;-69
2023/03/28 01:48:44;;;;;;;11.32;2.70;;;;;;;2.79;100.00;102572.84;5196761;28;20405;-69
2023/03/28 01:51:23;;;;;;;6.25;2.33;;;;;;;2.65;100.00;102571.47;5198416;28;20116;-69
2023/03/28 01:54:11;;;;;;;8.38;2.15;;;;;;;2.76;100.00;102566.00;5196748;28;20038;-70
2023/03/28 01:56:59;;;;;;;7.85;2.63;;;;;;;2.78;100.00;102568.56;5198909;28;20046;-69
2023/03/28 01:59:42;;;;;;;6.85;2.53;;;;;;;2.64;100.00;102574.91;5199250;28;20519;-69
2023/03/28 02:02:26;;;;;;;6.57;2.42;;;;;;;2.69;100.00;102585.19;5196721;28;20088;-69
2023/03/28 02:05:01;;;;;;;10.73;2.30;;;;;;;2.47;100.00;102579.66;5193858;28;20018;-69
2023/03/28 02:07:33;;;;;;;6.07;3.03;;;;;;;2.35;100.00;102572.16;5196782;28;20057;-70
2023/03/28 02:10:07;;;;;;;6.35;2.50;;;;;;;2.38;100.00;102577.25;5196796;28;20037;-69
2023/03/28 02:12:47;;;;;;;8.20;2.67;;;;;;;2.49;100.00;102577.03;5199587;28;20438;-69
2023/03/28 02:15:21;;;;;;;8.63;2.90;;;;;;;2.51;100.00;102580.44;5194731;28;20113;-69
2023/03/28 02:17:59;;;;;;;10.13;2.45;;;;;;;2.56;100.00;102578.59;5196603;28;20030;-69
2023/03/28 02:20:33;;;;;;;6.10;2.58;;;;;;;2.37;100.00;102547.13;5195562;28;20413;-68
2023/03/28 02:23:10;;;;;;;6.88;2.58;;;;;;;2.38;100.00;102560.00;5196418;28;20034;-69
2023/03/28 02:25:41;;;;;;;7.65;2.60;;;;;;;2.46;100.00;102569.31;5198646;28;20040;-69
2023/03/28 02:28:13;;;;;;;5.30;2.28;;;;;;;2.33;100.00;102569.63;5196878;28;20018;-69
2023/03/28 02:30:45;;;;;;;9.70;2.95;;;;;;;2.32;100.00;102572.25;5200148;28;20887;-68
2023/03/28 02:33:40;;;;;;;6.68;2.80;;;;;;;2.59;100.00;102569.00;5199334;28;20032;-69
2023/03/28 02:36:38;;;;;;;6.65;2.40;;;;;;;2.62;100.00;102565.50;5197128;28;20030;-69
2023/03/28 02:39:42;;;;;;;9.90;2.65;;;;;;;2.64;100.00;102564.56;5194418;28;20455;-70
2023/03/28 02:42:35;;;;;;;7.13;2.83;;;;;;;2.56;100.00;102566.50;5196428;28;20022;-69
2023/03/28 02:45:24;;;;;;;8.80;2.73;;;;;;;2.72;100.00;102560.94;5199434;28;20077;-68
2023/03/28 02:48:02;;;;;;;8.48;2.70;;;;;;;2.38;100.00;102564.34;5202912;28;20395;-69
2023/03/28 02:51:13;;;;;;;5.82;2.42;;;;;;;2.63;100.00;102564.63;5197108;28;20396;-69
2023/03/28 02:54:21;;;;;;;6.43;2.70;;;;;;;2.63;100.00;102564.63;5197021;28;20034;-69
2023/03/28 02:57:15;;;;;;;11.00;2.65;;;;;;;2.59;100.00;102566.44;5196582;28;20435;-69
2023/03/28 02:59:55;;;;;;;7.32;3.10;;;;;;;2.42;100.00;102565.97;5196232;28;20038;-69
2023/03/28 03:02:27;;;;;;;6.32;2.83;;;;;;;2.28;100.00;102561.13;5199199;28;20049;-69
2023/03/28 03:05:00;;;;;;;15.75;5.05;;;;;;;2.37;100.00;102563.47;5196076;28;20714;-69
2023/03/28 03:07:31;;;;;;;5.93;2.75;;;;;;;2.36;100.00;102556.63;5198103;28;20500;-69
2023/03/28 03:10:08;;;;;;;10.10;3.55;;;;;;;2.51;100.00;102562.34;5197688;28;20085;-69
2023/03/28 03:12:40;;;;;;;7.18;3.00;;;;;;;2.25;100.00;102561.19;5197807;28;20088;-68
2023/03/28 03:15:15;;;;;;;7.57;3.45;;;;;;;2.24;100.00;102569.00;5196101;28;20122;-69
2023/03/28 03:17:47;;;;;;;7.18;3.20;;;;;;;2.17;100.00;102556.19;5198118;28;20072;-69
2023/03/28 03:20:18;;;;;;;10.80;3.50;;;;;;;2.15;100.00;102557.09;5196805;28;20034;-69
2023/03/28 03:22:49;;;;;;;10.77;3.70;;;;;;;2.17;100.00;102556.19;5196205;28;20080;-69
2023/03/28 03:25:21;;;;;;;11.15;4.28;;;;;;;2.17;100.00;102563.94;5192261;28;20028;-68
2023/03/28 03:27:52;;;;;;;7.97;4.18;;;;;;;2.19;100.00;102559.56;5197928;28;20034;-68
2023/03/28 03:30:23;;;;;;;8.50;3.45;;;;;;;2.17;100.00;102566.53;5199358;28;20026;-69
2023/03/28 03:32:55;;;;;;;8.75;3.35;;;;;;;2.16;100.00;102564.84;5195303;28;20057;-68
2023/03/28 03:35:32;;;;;;;7.60;3.58;;;;;;;2.13;100.00;102564.06;5193936;28;20022;-69
2023/03/28 03:38:03;;;;;;;8.25;3.45;;;;;;;2.16;100.00;102569.16;5195250;28;20510;-69
2023/03/28 03:40:34;;;;;;;10.55;3.85;;;;;;;2.05;100.00;102569.38;5195834;28;20030;-69
2023/03/28 03:43:06;;;;;;;8.05;4.10;;;;;;;2.06;100.00;102576.25;5191841;28;20530;-69
2023/03/28 03:45:39;;;;;;;11.43;4.40;;;;;;;2.11;100.00;102569.25;5195233;28;20088;-69
2023/03/28 03:48:11;;;;;;;10.57;4.32;;;;;;;2.16;100.00;102569.16;5200794;28;20030;-68
2023/03/28 03:50:42;;;;;;;8.50;3.65;;;;;;;2.17;100.00;102570.84;5196228;28;20054;-68
2023/03/28 03:53:13;;;;;;;8.75;4.43;;;;;;;2.17;100.00;102558.78;5195320;28;20348;-68
2023/03/28 03:55:45;;;;;;;11.38;3.83;;;;;;;2.22;100.00;102565.56;5195773;28;20030;-68
2023/03/28 03:58:17;;;;;;;8.88;3.75;;;;;;;2.21;100.00;102566.47;5195686;28;20530;-68
2023/03/28 04:00:48;;;;;;;8.82;4.13;;;;;;;2.14;100.00;102564.00;5192156;28;20101;-69
2023/03/28 04:03:20;;;;;;;11.90;4.95;;;;;;;2.21;100.00;102556.13;5195602;28;20029;-69
2023/03/28 04:05:53;;;;;;;9.07;4.60;;;;;;;2.25;100.00;102556.00;5196721;28;20026;-68
2023/03/28 04:08:25;;;;;;;12.93;4.70;;;;;;;2.24;100.00;102553.47;5193940;28;20045;-69
2023/03/28 04:10:56;;;;;;;9.30;4.07;;;;;;;2.21;100.00;102559.56;5195232;28;20045;-68
2023/03/28 04:13:27;;;;;;;12.48;4.53;;;;;;;2.19;100.00;102559.56;5196249;28;20042;-68
2023/03/28 04:15:58;;;;;;;9.60;4.03;;;;;;;2.11;100.00;102558.91;5196228;28;20519;-69
2023/03/28 04:18:30;;;;;;;10.95;4.20;;;;;;;2.14;100.00;102565.75;5197136;28;20331;-68
2023/03/28 04:21:01;;;;;;;10.85;4.03;;;;;;;2.11;100.00;102563.22;5193770;28;20092;-69
2023/03/28 04:23:37;;;;;;;7.28;4.50;;;;;;;2.11;100.00;102553.72;5196164;28;20517;-69
2023/03/28 04:26:09;;;;;;;10.50;4.50;;;;;;;2.09;100.00;102552.94;5198769;28;20019;-68
2023/03/28 04:28:40;;;;;;;7.68;4.15;;;;;;;2.11;100.00;102556.31;5196048;28;20057;-69
2023/03/28 04:31:12;;;;;;;10.25;4.75;;;;;;;2.14;100.00;102555.41;5198677;28;20030;-69
2023/03/28 04:33:48;;;;;;;10.93;5.20;;;;;;;2.16;100.00;102548.47;5200126;28;20076;-69
2023/03/28 04:36:21;;;;;;;14.15;4.90;;;;;;;2.12;100.00;102557.16;5191453;28;20586;-68
2023/03/28 04:38:52;;;;;;;11.05;4.63;;;;;;;2.14;100.00;102550.22;5196737;28;20026;-68
2023/03/28 04:41:24;;;;;;;8.35;4.78;;;;;;;2.07;100.00;102554.69;5195800;28;20610;-69
2023/03/28 04:43:55;;;;;;;12.27;4.63;;;;;;;2.09;100.00;102552.06;5196840;28;20030;-69
2023/03/28 04:46:30;;;;;;;13.32;5.35;;;;;;;2.13;100.00;102551.13;5197638;28;20040;-68
2023/03/28 04:49:01;;;;;;;12.55;5.43;;;;;;;2.14;100.00;102553.66;5195358;28;20037;-69
2023/03/28 04:51:32;;;;;;;11.95;5.18;;;;;;;2.17;100.00;102560.50;5194870;28;20480;-68
2023/03/28 04:54:03;;;;;;;12.38;5.78;;;;;;;2.17;100.00;102556.19;5192934;28;20022;-69
2023/03/28 04:56:35;;;;;;;9.05;4.75;;;;;;;2.21;100.00;102556.13;5194544;28;20031;-69
2023/03/28 04:59:06;;;;;;;9.77;5.75;;;;;;;2.10;100.00;102552.03;5197842;28;20080;-68
2023/03/28 05:01:37;;;;;;;18.58;5.95;;;;;;;2.02;100.00;102560.84;5192903;28;20030;-69
2023/03/28 05:04:09;;;;;;;9.80;5.45;;;;;;;1.97;100.00;102557.50;5197806;28;20022;-69
2023/03/28 05:06:40;;;;;;;8.82;5.60;;;;;;;1.99;100.00;102560.91;5197186;28;20660;-68
2023/03/28 05:09:13;;;;;;;10.10;6.40;;;;;;;1.98;100.00;102564.38;5201993;28;20081;-68
2023/03/28 05:11:44;;;;;;;12.45;5.80;;;;;;;2.02;100.00;102566.00;5199670;28;20030;-68
2023/03/28 05:14:16;;;;;;;13.65;6.80;;;;;;;1.93;100.00;102565.34;5202178;28;20030;-68
2023/03/28 05:16:47;;;;;;;14.48;6.95;;;;;;;1.93;100.00;102562.75;5200442;28;20138;-68
2023/03/28 05:19:19;;;;;;;12.73;6.75;;;;;;;1.89;100.00;102573.16;5200149;28;20092;-68
2023/03/28 05:21:51;;;;;;;11.98;6.82;;;;;;;1.88;100.00;102576.63;5199728;28;20108;-68
2023/03/28 05:24:22;;;;;;;12.57;6.93;;;;;;;1.87;100.00;102569.78;5200544;28;20053;-68
2023/03/28 05:26:53;;;;;;;10.45;6.40;;;;;;;1.83;100.00;102566.41;5198566;28;20041;-68
2023/03/28 05:29:24;;;;;;;15.50;7.68;;;;;;;1.89;100.00;102576.59;5197929;28;20031;-67
2023/03/28 05:31:56;;;;;;;16.92;7.53;;;;;;;1.81;100.00;102580.22;5201268;28;20034;-68
2023/03/28 05:34:28;;;;;;;17.70;7.07;;;;;;;1.82;100.00;102575.03;5198020;28;20029;-68
2023/03/28 05:36:59;;;;;;;11.25;6.93;;;;;;;1.78;100.00;102578.56;5198724;28;20034;-68
2023/03/28 05:39:30;;;;;;;11.93;6.40;;;;;;;1.82;100.00;102579.34;5200795;28;20034;-68
2023/03/28 05:42:02;;;;;;;12.40;6.78;;;;;;;1.77;100.00;102576.00;5199703;28;20026;-68
2023/03/28 05:44:33;;;;;;;13.27;7.25;;;;;;;1.79;100.00;102585.44;5197961;28;20038;-68
2023/03/28 05:47:04;;;;;;;10.25;6.65;;;;;;;1.88;100.00;102586.97;5199781;28;20241;-68
2023/03/28 05:49:36;;;;;;;13.30;6.72;;;;;;;1.84;100.00;102587.91;5195895;28;20104;-68
2023/03/28 05:52:07;;;;;;;13.32;6.97;;;;;;;1.88;100.00;102587.81;5196263;28;20034;-68
2023/03/28 05:54:38;;;;;;;14.23;7.20;;;;;;;1.86;100.00;102579.25;5199524;28;20142;-68
2023/03/28 05:57:10;;;;;;;11.90;6.35;;;;;;;1.87;100.00;102574.94;5201188;28;20550;-68
2023/03/28 05:59:41;;;;;;;15.63;7.57;;;;;;;1.93;100.00;102577.38;5198833;28;20760;-68
2023/03/28 06:02:15;;;;;;;13.48;6.45;;;;;;;2.00;100.00;102573.78;5198809;28;20518;-68
2023/03/28 06:04:47;;;;;;;13.57;6.70;;;;;;;1.97;100.00;102575.59;5200458;28;20042;-67
2023/03/28 06:07:18;;;;;;;12.43;7.53;;;;;;;2.05;100.00;102578.88;5197337;28;20046;-68
2023/03/28 06:09:50;;;;;;;22.02;8.02;;;;;;;2.07;100.00;102569.34;5196088;28;20442;-69
2023/03/28 06:12:21;;;;;;;12.07;6.97;;;;;;;2.13;100.00;102564.91;5200542;28;20462;-68
2023/03/28 06:14:53;;;;;;;11.07;7.13;;;;;;;2.09;100.00;102562.41;5199488;28;20034;-68
2023/03/28 06:17:25;;;;;;;11.48;7.43;;;;;;;2.15;100.00;102568.28;5197406;28;20040;-68
2023/03/28 06:19:56;;;;;;;12.05;7.40;;;;;;;2.19;100.00;102572.50;5197658;28;20030;-68
2023/03/28 06:22:27;;;;;;;14.55;7.78;;;;;;;2.28;100.00;102579.22;5203333;28;20120;-68
2023/03/28 06:24:59;;;;;;;15.85;7.57;;;;;;;2.32;100.00;102569.66;5197167;28;20065;-68
2023/03/28 06:27:32;;;;;;;14.00;6.90;;;;;;;2.36;100.00;102566.13;5196232;28;20054;-68
2023/03/28 06:30:04;;;;;;;12.65;7.20;;;;;;;2.40;100.00;102580.69;5200830;28;20068;-68
2023/03/28 06:32:35;;;;;;;13.50;7.60;;;;;;;2.41;100.00;102585.81;5199179;28;20109;-68
2023/03/28 06:35:08;;;;;;;13.83;7.40;;;;;;;2.46;100.00;102587.44;5198861;28;20049;-68
2023/03/28 06:37:39;;;;;;;11.55;6.60;;;;;;;2.49;100.00;102593.38;5196967;28;20301;-68
2023/03/28 06:40:10;;;;;;;16.48;8.55;;;;;;;2.44;100.00;102580.56;5196172;28;20026;-68
2023/03/28 06:42:42;;;;;;;15.35;7.75;;;;;;;2.53;100.00;102586.41;5198672;28;20042;-68
2023/03/28 06:45:13;;;;;;;15.82;7.10;;;;;;;2.55;100.00;102588.09;5199305;28;20034;-67
2023/03/28 06:47:44;;;;;;;11.57;7.20;;;;;;;2.55;100.00;102587.25;5197945;28;20040;-68
2023/03/28 06:50:16;;;;;;;16.25;7.88;;;;;;;2.57;100.00;102591.47;5196606;28;20491;-68
2023/03/28 06:52:47;;;;;;;11.63;6.93;;;;;;;2.71;100.00;102596.34;5196536;28;20073;-68
2023/03/28 06:55:21;;;;;;;10.38;7.18;;;;;;;2.70;100.00;102571.34;5199463;28;20472;-67
2023/03/28 06:57:52;;;;;;;14.40;8.10;;;;;;;2.77;100.00;102591.03;5196850;28;20025;-68
2023/03/28 07:00:24;;;;;;;13.75;7.32;;;;;;;2.85;100.00;102588.25;5196483;28;20030;-68
2023/03/28 07:02:55;;;;;;;13.95;7.43;;;;;;;2.89;100.00;102587.28;5198009;28;20044;-68
2023/03/28 07:05:27;;;;;;;15.07;7.43;;;;;;;2.96;100.00;102583.66;5199264;28;20149;-68
2023/03/28 07:07:59;;;;;;;13.05;7.20;;;;;;;3.08;100.00;102593.69;5200960;28;20120;-68
2023/03/28 07:10:30;;;;;;;16.13;7.90;;;;;;;3.22;100.00;102595.94;5194461;28;20491;-68
2023/03/28 07:13:02;;;;;;;16.73;7.53;;;;;;;3.28;100.00;102590.59;5200661;28;20041;-68
2023/03/28 07:15:34;;;;;;;15.68;7.68;;;;;;;3.28;100.00;102585.41;5197558;28;20034;-67
2023/03/28 07:18:09;;;;;;;18.75;7.45;;;;;;;3.48;100.00;102587.47;5197759;28;20061;-67
2023/03/28 07:20:40;;;;;;;14.57;7.55;;;;;;;3.57;100.00;102594.16;5196521;28;20041;-68
2023/03/28 07:23:12;;;;;;;16.27;7.60;;;;;;;3.76;100.00;102603.13;5195773;28;20372;-68
2023/03/28 07:25:43;;;;;;;12.02;6.95;;;;;;;3.86;100.00;102598.50;5201221;28;20531;-68
2023/03/28 07:28:14;;;;;;;14.68;7.50;;;;;;;3.99;100.00;102606.78;5202833;28;20057;-68
2023/03/28 07:30:46;;;;;;;11.50;7.18;;;;;;;4.13;100.00;102602.91;5194793;28;20037;-68
2023/03/28 07:33:17;;;;;;;11.60;6.78;;;;;;;4.21;100.00;102604.44;5198197;28;20024;-68
2023/03/28 07:35:48;;;;;;;13.35;7.43;;;;;;;4.38;100.00;102607.34;5197166;28;20495;-67
2023/03/28 07:38:20;;;;;;;11.73;6.47;;;;;;;4.44;100.00;102606.31;5195890;28;20096;-68
2023/03/28 07:40:52;;;;;;;17.90;6.93;;;;;;;4.59;100.00;102600.66;5193020;28;20038;-67
2023/03/28 07:43:23;;;;;;;9.20;6.10;;;;;;;4.71;100.00;102608.03;5195354;28;20037;-67
2023/03/28 07:46:06;;;;;;;11.00;6.15;;;;;;;4.99;100.00;102607.97;5198007;28;20427;-68
2023/03/28 07:48:39;;;;;;;14.27;5.70;;;;;;;4.89;100.00;102609.22;5196153;28;20026;-67
2023/03/28 07:51:13;;;;;;;12.35;5.93;;;;;;;4.95;100.00;102598.59;5198242;28;20073;-67
2023/03/28 07:53:44;;;;;;;;;;;;;;;5.53;100.00;102600.94;5198361;28;20486;-68
2023/03/28 07:56:16;;;;;;;13.18;5.68;;;;;;;5.10;100.00;102599.84;5195848;28;19922;-66
2023/03/28 07:58:47;;;;;;;12.73;6.00;;;;;;;5.22;100.00;102603.75;5195766;28;20038;-68
2023/03/28 08:01:21;;;;;;;14.75;5.70;;;;;;;5.28;100.00;102606.16;5197882;28;20057;-68
2023/03/28 08:03:52;;;;;;;11.82;5.63;;;;;;;5.36;100.00;102610.19;5198589;28;20037;-67
2023/03/28 08:06:25;;;;;;;9.98;5.68;;;;;;;5.34;100.00;102592.94;5194953;28;20475;-68
2023/03/28 08:08:56;;;;;;;11.20;5.00;;;;;;;5.61;99.60;102614.53;5194171;28;20037;-69
2023/03/28 08:11:27;;;;;;;11.98;5.28;;;;;;;5.69;97.83;102606.47;5197578;28;20085;-69
2023/03/28 08:13:59;;;;;;;10.25;4.55;;;;;;;5.83;100.00;102604.19;5199444;28;20037;-67
2023/03/28 08:16:31;;;;;;;6.25;4.15;;;;;;;5.86;95.53;102607.53;5198839;28;20038;-70
2023/03/28 08:19:03;;;;;;;10.02;4.15;;;;;;;5.99;94.51;102612.34;5193757;28;20910;-67
2023/03/28 08:21:34;;;;;;;10.85;4.43;;;;;;;5.99;95.16;102618.38;5194398;28;20076;-68
2023/03/28 08:24:06;;;;;;;11.95;4.85;;;;;;;6.19;95.98;102608.97;5197637;28;20025;-69
2023/03/28 08:26:38;;;;;;;12.02;4.70;;;;;;;6.28;94.83;102601.66;5192018;28;20088;-69
2023/03/28 08:29:10;;;;;;;7.57;4.00;;;;;;;6.39;93.90;102601.22;5196557;28;20021;-67
2023/03/28 08:31:41;;;;;;;10.73;4.60;;;;;;;6.44;92.11;102601.94;5193286;28;20244;-68
2023/03/28 08:34:13;;;;;;;9.38;3.97;;;;;;;6.48;91.89;102598.28;5190833;28;20068;-69
2023/03/28 08:36:44;;;;;;;9.40;3.55;;;;;;;6.60;90.83;102598.72;5189918;28;20018;-68
2023/03/28 08:39:15;;;;;;;8.10;3.00;;;;;;;6.68;87.96;102592.28;5195596;28;20035;-69
2023/03/28 08:42:15;;;;;;;12.23;4.28;;;;;;;6.85;89.47;102590.72;5196784;28;20034;-68
2023/03/28 08:45:19;;;;;;;8.20;3.33;;;;;;;7.09;86.89;102596.69;5201327;28;20034;-68
2023/03/28 08:48:09;;;;;;;6.85;2.80;;;;;;;7.11;85.09;102593.09;5196122;28;20033;-68
2023/03/28 08:50:46;;;;;;;11.00;3.55;;;;;;;6.99;84.42;102584.03;5199867;28;20398;-69
2023/03/28 08:53:37;;;;;;;8.52;3.25;;;;;;;7.23;84.71;102589.13;5201531;28;20034;-68
2023/03/28 08:56:12;;;;;;;6.47;2.67;;;;;;;7.10;82.77;102591.41;5199499;28;20088;-68
2023/03/28 08:59:00;;;;;;;8.75;3.13;;;;;;;7.41;82.45;102590.94;5200693;28;20057;-68
2023/03/28 09:01:32;;;;;;;9.20;3.00;;;;;;;7.31;83.84;102587.03;5198220;28;20050;-69
2023/03/28 09:04:04;;;;;;;8.32;3.33;;;;;;;7.34;81.98;102583.44;5202811;28;20555;-69
2023/03/28 09:06:44;;;;;;;9.57;3.53;;;;;;;7.58;80.06;102582.38;5201271;28;20029;-68
2023/03/28 09:09:33;;;;;;;12.55;3.28;;;;;;;7.68;81.76;102588.88;5201710;28;20037;-69
2023/03/28 09:12:23;;;;;;;6.45;2.97;;;;;;;7.45;75.98;102579.47;5197060;28;20026;-69
2023/03/28 09:15:06;;;;;;;9.55;3.10;;;;;;;7.63;74.77;102584.78;5198750;28;20038;-68
2023/03/28 09:17:57;;;;;;;7.93;2.70;;;;;;;7.65;74.80;102580.34;5200533;28;20092;-70
2023/03/28 09:20:47;;;;;;;8.73;3.20;;;;;;;7.86;77.06;102581.16;5195723;28;20111;-69
2023/03/28 09:23:53;;;;;;;5.80;2.42;;;;;;;8.02;75.35;102580.34;5197868;28;20131;-69
2023/03/28 09:26:40;;;;;;;9.23;2.65;;;;;;;7.93;71.28;102587.78;5192454;28;20034;-68
2023/03/28 09:29:23;;;;;;;7.00;2.13;;;;;;;7.95;71.54;102571.13;5200366;28;20026;-69
2023/03/28 09:32:31;;;;;;;8.75;2.53;;;;;;;7.99;70.61;102572.69;5194622;28;20049;-69
2023/03/28 09:35:15;;;;;;;10.82;2.10;;;;;;;7.94;70.83;102569.44;5199523;28;20187;-69
2023/03/28 09:37:52;;;;;;;10.10;2.85;;;;;;;8.00;67.12;102563.94;5200163;28;20266;-68
2023/03/28 09:40:28;;;;;;;5.43;1.95;;;;;;;8.10;66.19;102566.09;5201214;28;20022;-69
2023/03/28 09:43:13;;;;;;;7.13;1.88;;;;;;;8.28;67.18;102562.63;5199382;28;20091;-69
2023/03/28 09:45:51;;;;;;;6.97;1.80;;;;;;;8.24;65.03;102564.53;5193450;28;20026;-68
2023/03/28 09:48:30;;;;;;;6.72;2.00;;;;;;;8.33;66.83;102559.78;5201295;28;20407;-69
2023/03/28 09:51:04;;;;;;;6.55;2.33;;;;;;;8.17;67.47;102551.84;5202274;28;20033;-69
2023/03/28 09:53:36;;;;;;;6.93;2.20;;;;;;;8.39;67.35;102554.31;5199301;28;20033;-69
2023/03/28 09:56:28;;;;;;;6.10;2.40;;;;;;;8.65;66.19;102545.22;5198000;28;20056;-67
2023/03/28 09:59:03;;;;;;;8.30;1.95;;;;;;;8.57;65.43;102542.13;5198658;28;20029;-69
2023/03/28 10:01:46;;;;;;;8.90;2.40;;;;;;;8.65;64.78;102545.22;5196552;28;20116;-69
2023/03/28 10:04:40;;;;;;;5.75;2.03;;;;;;;8.61;61.57;102531.47;5192478;28;20192;-68
2023/03/28 10:07:11;;;;;;;7.97;2.33;;;;;;;8.70;59.05;102527.53;5200005;28;20773;-69
2023/03/28 10:09:54;;;;;;;9.67;2.20;;;;;;;8.85;60.20;102521.53;5200057;28;20484;-67
2023/03/28 10:12:34;;;;;;;7.72;1.80;;;;;;;8.80;60.13;102507.88;5197457;28;20300;-69
2023/03/28 10:15:26;;;;;;;5.45;1.58;;;;;;;8.89;57.27;102510.00;5195607;28;20495;-69
2023/03/28 10:18:02;;;;;;;6.60;1.70;;;;;;;9.04;55.75;102507.53;5193353;28;20038;-69
2023/03/28 10:20:36;;;;;;;7.97;1.90;;;;;;;9.10;57.42;102507.22;5192378;28;20057;-68
2023/03/28 10:23:12;;;;;;;7.07;1.80;;;;;;;9.14;56.60;102498.28;5196760;28;20032;-69
2023/03/28 10:25:48;;;;;;;6.05;1.90;;;;;;;9.15;57.64;102507.81;5197499;28;20045;-69
2023/03/28 10:28:29;;;;;;;4.22;1.92;;;;;;;9.47;52.88;102498.25;5193006;28;20038;-67
2023/03/28 10:31:02;;;;;;;5.82;1.80;;;;;;;9.42;51.85;102495.88;5194473;28;20032;-68
2023/03/28 10:33:45;;;;;;;5.55;1.67;;;;;;;9.21;53.64;102490.03;5195442;28;20789;-69
2023/03/28 10:36:42;;;;;;;6.07;1.57;;;;;;;9.37;51.25;102486.63;5192289;28;20087;-68
2023/03/28 10:39:29;;;;;;;6.75;1.88;;;;;;;9.38;51.31;102488.28;5191926;28;20395;-69
2023/03/28 10:42:01;;;;;;;6.32;1.90;;;;;;;9.17;50.31;102483.28;5190772;28;20341;-68
2023/03/28 10:44:39;;;;;;;4.10;1.20;;;;;;;9.42;49.88;102472.34;5199961;28;20109;-69
2023/03/28 10:47:15;;;;;;;4.85;1.50;;;;;;;9.61;49.84;102463.50;5199300;28;20510;-69
2023/03/28 10:49:50;;;;;;;5.80;1.55;;;;;;;9.81;49.69;102476.34;5200623;28;20045;-69
2023/03/28 10:52:45;;;;;;;5.70;1.60;;;;;;;9.81;49.67;102470.25;5193423;28;20137;-68
2023/03/28 10:55:22;;;;;;;7.30;2.13;;;;;;;9.72;48.58;102472.44;5195328;28;20104;-68
2023/03/28 10:58:11;;;;;;;5.78;1.75;;;;;;;9.87;46.78;102462.91;5197888;28;20104;-68
2023/03/28 11:01:00;;;;;;;7.07;2.38;;;;;;;9.83;45.08;102473.63;5189138;28;20034;-69
2023/03/28 11:03:56;;;;;;;7.72;2.80;;;;;;;10.15;46.85;102467.44;5196751;28;20022;-69
2023/03/28 11:06:45;;;;;;;5.32;1.83;;;;;;;10.23;45.63;102444.28;5194276;28;20034;-69
2023/03/28 11:09:23;;;;;;;5.57;2.05;;;;;;;10.30;45.09;102436.91;5187733;28;20038;-68
2023/03/28 11:12:12;;;;;;;6.68;2.20;;;;;;;10.50;47.32;102434.91;5187594;28;20034;-68
2023/03/28 11:15:00;;;;;;;6.13;2.20;;;;;;;10.42;46.91;102427.50;5201028;28;20095;-69
2023/03/28 11:17:51;;;;;;;6.95;2.50;;;;;;;10.31;46.82;102422.91;5193620;28;20041;-69
2023/03/28 11:20:39;;;;;;;5.30;1.90;;;;;;;10.45;47.19;102406.34;5190012;28;20447;-69
2023/03/28 11:23:42;;;;;;;7.30;2.10;;;;;;;10.82;45.66;102410.22;5195378;28;20057;-68
2023/03/28 11:26:30;;;;;;;5.13;2.00;;;;;;;10.83;43.55;102398.78;5198323;28;20037;-69
2023/03/28 11:29:17;;;;;;;6.60;2.63;;;;;;;11.00;44.51;102399.56;5199066;28;20117;-69
2023/03/28 11:32:11;;;;;;;8.18;2.42;;;;;;;11.21;43.33;102408.69;5195249;28;20555;-69
2023/03/28 11:34:58;;;;;;;6.03;2.25;;;;;;;11.25;43.91;102386.63;5191913;28;20030;-69
2023/03/28 11:37:36;;;;;;;4.95;1.85;;;;;;;11.20;42.33;102397.38;5195673;28;20037;-69
2023/03/28 11:40:24;;;;;;;7.15;2.50;;;;;;;11.42;44.27;102394.25;5194632;28;20042;-69
2023/03/28 11:43:00;;;;;;;5.15;1.83;;;;;;;11.23;42.58;102385.00;5196907;28;20040;-68
2023/03/28 11:45:41;;;;;;;4.97;1.70;;;;;;;11.38;41.74;102369.13;5194941;28;20030;-69
2023/03/28 11:48:29;;;;;;;5.57;2.25;;;;;;;11.51;41.18;102357.84;5197390;28;20026;-68
2023/03/28 11:51:17;;;;;;;4.00;1.60;;;;;;;11.67;40.44;102354.13;5195515;28;20566;-69
2023/03/28 11:54:01;;;;;;;6.20;2.67;;;;;;;11.95;39.76;102339.22;5193780;28;20112;-69
2023/03/28 11:56:49;;;;;;;6.15;1.95;;;;;;;11.99;40.77;102329.34;5197273;28;20459;-69
2023/03/28 11:59:26;;;;;;;6.30;1.60;;;;;;;11.88;38.39;102335.31;5193312;28;20445;-69
2023/03/28 12:02:33;;;;;;;7.43;2.10;;;;;;;11.72;39.15;102339.88;5194844;28;20487;-69
2023/03/28 12:05:17;;;;;;;5.82;1.75;;;;;;;11.15;39.11;102343.53;5198241;28;20039;-70
2023/03/28 12:07:49;;;;;;;4.35;1.75;;;;;;;11.31;40.49;102327.66;5198191;28;20058;-70
2023/03/28 12:10:34;;;;;;;4.53;1.83;;;;;;;11.45;40.79;102328.44;5199571;28;20088;-69
2023/03/28 12:13:13;;;;;;;6.68;1.80;;;;;;;11.36;40.88;102317.69;5192902;28;20394;-69